Skip Navigation Links Skip Navigation Links

Current Weather

Seymour Johnson Afb, Goldsboro, N.C.

For information only: do not use for flight planning or navigation.
Latest weather
Observation time Friday, December 4, 2020 1:56 AM EST
Local time Friday, December 4, 2020 3:02 AM EST
Flight conditions Visual Meteorological Conditions
Winds
Wind speed calm
Visibility 10 mi.
Sky condition
Ceiling unlimited
Cloud layer scattered clouds 13,000 ft.
Cloud layer scattered clouds 22,000 ft.
Temperature 35°F
Dewpoint 31°F
Altimeter 30.25 in.Hg
Derived measurements
Relative humidity 84%
Wind chill 35°F
Density altitude -1773 ft.
Sea-level pressure 30.26 in.Hg
Remarks
Fully automated report.
System requires maintenance.
Automated weather observing station with precipitation discriminator.
METAR KGSB 040656Z AUTO 00000KT 10SM SCT130 SCT220 02/M00 A3025 RMK AO2 SLP247 T00191005 $

Settings

Location code

InnerDrive.Weather 4.0.6770.0 Release CLR 4.0.30319.42000
Copyright ©2018 Inner Drive Technology. All rights reserved. Portions Copyright ©1986-2018 David Braverman.

Find weather

Site navigation


Skip Navigation Links

Place info

Page info

PayPal - The safer, easier way to pay online!

Return home.

Copyright ©2020 Inner Drive Technology. Purveyors of fine, hand-crafted computer software. Page printed 2020-12-04T08:02:28 UTC.